Terminal Aerodrome Forecast
Issued by NWS Lake Charles, LA

Home | Current Version | Previous Version | Text Only | Print | Product List | Glossary On
Versions: 1 2 3 4 5 6 7 8 9 10 11 12 13 14 15 16 17 18 19 20 21 22 23 24 25 26 27 28 29 30 31 32 33 34 35 36 37 38
445
FTUS44 KLCH 191143
TAFAEX
TAF
KAEX 191143Z 1912/2012 31005KT P6SM BKN040
     FM191500 31012G20KT P6SM BKN080
     FM191800 31020G27KT P6SM VCSH SCT100
     FM200100 29006KT P6SM SKC=

USA.gov is the U.S. government's official web portal to all federal, state and local government web resources and services.